createdAt,value
2018-07-06T00:00:24.537Z,8.20
2018-07-06T00:03:04.243Z,8.03
2018-07-06T00:05:43.943Z,8.10
2018-07-06T00:08:23.589Z,7.90
2018-07-06T00:11:03.452Z,8.40
2018-07-06T00:13:43.001Z,8.43
2018-07-06T00:16:22.547Z,9.37
2018-07-06T00:19:02.255Z,8.43
2018-07-06T00:21:41.892Z,9.17
2018-07-06T00:24:21.544Z,9.23
2018-07-06T00:27:01.216Z,9.03
2018-07-06T00:29:40.840Z,10.07
2018-07-06T00:32:20.609Z,9.73
2018-07-06T00:35:00.336Z,10.07
2018-07-06T00:37:40.055Z,9.63
2018-07-06T00:40:19.934Z,9.93
2018-07-06T00:42:59.560Z,9.07
2018-07-06T00:45:39.245Z,9.80
2018-07-06T00:48:18.904Z,10.03
2018-07-06T00:51:01.997Z,9.20
2018-07-06T00:53:42.038Z,10.27
2018-07-06T00:56:22.192Z,9.20
2018-07-06T00:59:01.956Z,9.93
2018-07-06T01:01:41.954Z,9.77
2018-07-06T01:04:21.755Z,9.83
2018-07-06T01:07:01.536Z,10.23
2018-07-06T01:09:41.408Z,9.23
2018-07-06T01:12:26.521Z,10.40
2018-07-06T01:15:11.667Z,10.37
2018-07-06T01:17:51.292Z,9.90
2018-07-06T01:20:31.122Z,9.80
2018-07-06T01:23:10.765Z,9.93
2018-07-06T01:25:50.654Z,10.13
2018-07-06T01:28:30.389Z,10.13
2018-07-06T01:31:10.280Z,9.93
2018-07-06T01:33:49.850Z,10.43
2018-07-06T01:36:29.503Z,10.13
2018-07-06T01:39:09.240Z,10.27
2018-07-06T01:41:48.803Z,9.97
2018-07-06T01:44:28.540Z,10.20
2018-07-06T01:47:07.956Z,9.30
2018-07-06T01:49:47.680Z,9.37
2018-07-06T01:52:27.271Z,8.53
2018-07-06T01:55:06.980Z,9.50
2018-07-06T01:57:46.629Z,9.33
2018-07-06T02:00:26.285Z,8.80
2018-07-06T02:03:06.050Z,9.73
2018-07-06T02:05:45.757Z,9.10
2018-07-06T02:08:25.459Z,9.23
2018-07-06T02:11:05.155Z,9.27
2018-07-06T02:13:44.755Z,9.57
2018-07-06T02:16:25.266Z,9.33
2018-07-06T02:19:05.117Z,9.17
2018-07-06T02:21:44.901Z,10.10
2018-07-06T02:24:24.609Z,9.30
2018-07-06T02:26:58.388Z,9.57
2018-07-06T02:29:38.143Z,9.60
2018-07-06T02:32:17.885Z,9.80
2018-07-06T02:34:57.687Z,9.77
2018-07-06T02:37:37.408Z,10.03
2018-07-06T02:40:17.112Z,9.50
2018-07-06T02:42:56.844Z,10.07
2018-07-06T02:45:36.624Z,9.53
2018-07-06T02:48:16.414Z,10.73
2018-07-06T02:50:56.022Z,10.33
2018-07-06T02:53:35.849Z,10.23
2018-07-06T02:56:15.596Z,9.93
2018-07-06T02:58:55.394Z,10.83
2018-07-06T03:01:35.046Z,10.50
2018-07-06T03:04:14.665Z,10.37
2018-07-06T03:06:54.647Z,10.10
2018-07-06T03:09:34.389Z,10.93
2018-07-06T03:12:14.144Z,10.57
2018-07-06T03:14:53.762Z,11.43
2018-07-06T03:17:33.499Z,10.07
2018-07-06T03:20:12.979Z,11.10
2018-07-06T03:22:52.673Z,11.13
2018-07-06T03:25:32.398Z,10.20
2018-07-06T03:28:12.340Z,12.37
2018-07-06T03:30:52.047Z,11.77
2018-07-06T03:33:31.672Z,11.13
2018-07-06T03:36:11.377Z,11.63
2018-07-06T03:38:50.946Z,11.43
2018-07-06T03:41:30.637Z,11.00
2018-07-06T03:44:10.158Z,11.20
2018-07-06T03:46:49.769Z,12.13
2018-07-06T03:49:29.564Z,11.17
2018-07-06T03:52:09.305Z,11.17
2018-07-06T03:54:48.938Z,11.20
2018-07-06T03:57:28.663Z,12.23
2018-07-06T04:00:08.265Z,11.47
2018-07-06T04:02:47.970Z,10.57
2018-07-06T04:05:27.640Z,11.40
2018-07-06T04:08:07.490Z,11.90
2018-07-06T04:10:41.189Z,11.60
2018-07-06T04:13:20.810Z,11.57
2018-07-06T04:16:00.549Z,10.40
2018-07-06T04:18:40.313Z,10.47
2018-07-06T04:21:20.247Z,10.63
2018-07-06T04:23:59.876Z,10.90
2018-07-06T04:26:39.670Z,11.03
2018-07-06T04:29:19.757Z,10.90
2018-07-06T04:31:59.483Z,10.60
2018-07-06T04:34:39.327Z,9.53
2018-07-06T04:37:18.965Z,9.50
2018-07-06T04:39:58.903Z,9.63
2018-07-06T04:42:38.603Z,8.63
2018-07-06T04:45:18.197Z,9.37
2018-07-06T04:47:58.014Z,8.37
2018-07-06T04:50:38.706Z,7.60
2018-07-06T04:53:18.321Z,7.27
2018-07-06T04:55:57.971Z,7.10
2018-07-06T04:58:37.651Z,6.53
2018-07-06T05:01:17.412Z,5.47
2018-07-06T05:03:57.197Z,5.57
2018-07-06T05:06:36.876Z,5.77
2018-07-06T05:09:16.547Z,5.20
2018-07-06T05:11:56.337Z,5.33
2018-07-06T05:14:35.927Z,5.33
2018-07-06T05:17:15.583Z,5.17
2018-07-06T05:19:55.274Z,4.77
2018-07-06T05:22:34.921Z,5.17
2018-07-06T05:25:14.836Z,4.47
2018-07-06T05:27:54.563Z,4.23
2018-07-06T05:30:34.405Z,4.57
2018-07-06T05:33:14.198Z,3.80
2018-07-06T05:35:54.146Z,4.13
2018-07-06T05:38:33.913Z,4.03
2018-07-06T05:41:07.512Z,4.30
2018-07-06T05:43:47.370Z,4.43
2018-07-06T05:46:27.145Z,4.33
2018-07-06T05:49:06.654Z,4.10
2018-07-06T05:51:46.278Z,4.20
2018-07-06T05:54:25.878Z,4.10
2018-07-06T05:57:05.576Z,3.93
2018-07-06T05:59:45.680Z,3.80
2018-07-06T06:02:25.362Z,4.33
2018-07-06T06:05:05.040Z,4.03
2018-07-06T06:07:32.355Z,4.17
2018-07-06T06:10:00.846Z,4.03
2018-07-06T06:12:29.254Z,4.27
2018-07-06T06:14:57.880Z,3.90
2018-07-06T06:17:26.316Z,4.47
2018-07-06T06:19:54.882Z,3.97
2018-07-06T06:22:23.593Z,4.60
2018-07-06T06:24:52.050Z,4.00
2018-07-06T06:27:20.493Z,4.00
2018-07-06T06:29:50.065Z,4.63
2018-07-06T06:32:18.528Z,4.47
2018-07-06T06:34:47.078Z,4.67
2018-07-06T06:37:15.575Z,4.30
2018-07-06T06:39:44.082Z,4.20
2018-07-06T06:42:12.532Z,4.07
2018-07-06T06:44:41.061Z,3.90
2018-07-06T06:47:09.466Z,4.20
2018-07-06T06:49:38.016Z,3.50
2018-07-06T06:52:06.614Z,3.43
2018-07-06T06:54:35.170Z,3.30
2018-07-06T06:57:03.686Z,3.57
2018-07-06T06:59:32.218Z,3.23
2018-07-06T07:02:00.747Z,3.47
2018-07-06T07:04:29.369Z,2.93
2018-07-06T07:06:57.966Z,2.87
2018-07-06T07:09:26.473Z,3.03
2018-07-06T07:11:55.000Z,2.90
2018-07-06T07:14:23.466Z,2.90
2018-07-06T07:16:52.008Z,3.30
2018-07-06T07:19:20.629Z,3.60
2018-07-06T07:21:49.098Z,3.13
2018-07-06T07:24:17.592Z,3.43
2018-07-06T07:26:46.048Z,3.60
2018-07-06T07:29:21.080Z,3.47
2018-07-06T07:31:49.532Z,3.00
2018-07-06T07:34:18.024Z,3.67
2018-07-06T07:36:46.470Z,3.50
2018-07-06T07:39:15.438Z,3.10
2018-07-06T07:41:44.145Z,3.00
2018-07-06T07:44:12.697Z,3.20
2018-07-06T07:46:41.273Z,3.40
2018-07-06T07:49:09.761Z,3.37
2018-07-06T07:52:09.267Z,3.43
2018-07-06T07:54:54.445Z,3.30
2018-07-06T07:57:23.273Z,3.33
2018-07-06T07:59:52.333Z,2.70
2018-07-06T08:02:21.035Z,3.13
2018-07-06T08:04:50.061Z,3.27
2018-07-06T08:07:19.412Z,2.80
2018-07-06T08:09:48.090Z,2.70
2018-07-06T08:12:17.193Z,3.17
2018-07-06T08:14:45.735Z,2.63
2018-07-06T08:17:14.335Z,2.60
2018-07-06T08:19:42.832Z,2.80
2018-07-06T08:22:11.795Z,2.60
2018-07-06T08:24:40.238Z,2.60
2018-07-06T08:27:08.699Z,2.30
2018-07-06T08:29:37.219Z,2.53
2018-07-06T08:32:05.798Z,2.30
2018-07-06T08:34:45.621Z,2.57
2018-07-06T08:37:27.830Z,2.47
2018-07-06T08:39:57.154Z,2.47
2018-07-06T08:42:27.079Z,2.03
2018-07-06T08:44:56.564Z,2.37
2018-07-06T08:47:25.166Z,2.03
2018-07-06T08:49:54.434Z,2.33
2018-07-06T08:52:22.959Z,2.47
2018-07-06T08:54:52.335Z,2.40
2018-07-06T08:57:22.302Z,2.30
2018-07-06T08:59:51.545Z,2.40
2018-07-06T09:02:20.070Z,2.40
2018-07-06T09:04:49.315Z,2.27
2018-07-06T09:07:17.884Z,2.10
2018-07-06T09:09:46.652Z,2.00
2018-07-06T09:12:15.107Z,2.00
2018-07-06T09:14:43.601Z,2.27
2018-07-06T09:17:13.569Z,3.10
2018-07-06T09:19:42.513Z,3.30
2018-07-06T09:22:11.417Z,4.07
2018-07-06T09:24:39.870Z,4.23
2018-07-06T09:27:08.347Z,6.43
2018-07-06T09:29:36.858Z,7.23
2018-07-06T09:32:05.577Z,7.03
2018-07-06T09:34:34.236Z,8.83
2018-07-06T09:37:02.862Z,9.20
2018-07-06T09:39:31.376Z,9.37
2018-07-06T09:41:59.914Z,9.33
2018-07-06T09:44:28.584Z,10.10
2018-07-06T09:46:57.143Z,10.57
2018-07-06T09:49:25.948Z,10.50
2018-07-06T09:51:54.438Z,10.77
2018-07-06T09:54:22.965Z,8.00
2018-07-06T09:56:51.590Z,7.03
2018-07-06T09:59:20.143Z,8.03
2018-07-06T10:01:48.572Z,9.50
2018-07-06T10:04:17.177Z,10.03
2018-07-06T10:06:45.757Z,12.23
2018-07-06T10:09:14.960Z,13.27
2018-07-06T10:11:43.527Z,13.63
2018-07-06T10:14:12.059Z,14.37
2018-07-06T10:16:40.584Z,14.90
2018-07-06T10:19:09.350Z,14.27
2018-07-06T10:21:37.855Z,15.13
2018-07-06T10:24:06.426Z,13.90
2018-07-06T10:26:35.021Z,15.00
2018-07-06T10:29:17.214Z,14.63
2018-07-06T10:31:56.369Z,15.33
2018-07-06T10:34:24.915Z,15.00
2018-07-06T10:36:53.369Z,14.67
2018-07-06T10:39:21.924Z,14.23
2018-07-06T10:41:50.387Z,14.37
2018-07-06T10:44:18.844Z,15.77
2018-07-06T10:46:47.416Z,14.50
2018-07-06T10:49:15.943Z,13.17
2018-07-06T10:51:44.567Z,14.07
2018-07-06T10:54:13.114Z,13.37
2018-07-06T10:56:41.703Z,14.57
2018-07-06T10:59:10.236Z,14.17
2018-07-06T11:01:38.449Z,14.33
2018-07-06T11:04:07.139Z,15.73
2018-07-06T11:06:35.768Z,15.97
2018-07-06T11:09:04.805Z,16.77
2018-07-06T11:11:33.403Z,16.03
2018-07-06T11:14:01.883Z,15.60
2018-07-06T11:16:30.636Z,17.30
2018-07-06T11:18:59.097Z,15.53
2018-07-06T11:21:27.545Z,13.80
2018-07-06T11:23:56.051Z,13.97
2018-07-06T11:26:24.769Z,13.23
2018-07-06T11:28:53.556Z,12.83
2018-07-06T11:31:21.799Z,13.90
2018-07-06T11:33:50.519Z,12.30
2018-07-06T11:36:19.633Z,10.67
2018-07-06T11:38:48.248Z,11.20
2018-07-06T11:41:17.044Z,11.53
2018-07-06T11:43:45.877Z,11.17
2018-07-06T11:46:14.644Z,10.40
2018-07-06T11:48:43.276Z,9.57
2018-07-06T11:51:11.976Z,9.77
2018-07-06T11:53:40.548Z,8.70
2018-07-06T11:56:09.224Z,10.97
2018-07-06T11:58:37.896Z,8.90
2018-07-06T12:01:06.575Z,8.60
2018-07-06T12:03:42.282Z,8.97
2018-07-06T12:06:10.974Z,12.40
2018-07-06T12:08:39.830Z,8.50
2018-07-06T12:11:08.717Z,7.37
2018-07-06T12:13:37.302Z,6.77
2018-07-06T12:16:05.865Z,7.30
2018-07-06T12:18:34.380Z,8.17
2018-07-06T12:21:03.092Z,9.80
2018-07-06T12:23:31.598Z,7.93
2018-07-06T12:26:00.192Z,8.17
2018-07-06T12:28:28.749Z,10.27
2018-07-06T12:30:57.065Z,9.90
2018-07-06T12:33:25.550Z,8.77
2018-07-06T12:35:54.074Z,7.77
2018-07-06T12:38:22.616Z,7.23
2018-07-06T12:40:51.431Z,7.73
2018-07-06T12:43:19.959Z,8.43
2018-07-06T12:45:48.533Z,7.43
2018-07-06T12:48:17.073Z,7.30
2018-07-06T12:50:45.623Z,6.73
2018-07-06T12:53:14.182Z,7.40
2018-07-06T12:55:42.734Z,7.07
2018-07-06T12:58:11.410Z,6.90
2018-07-06T13:00:39.900Z,7.00
2018-07-06T13:03:08.536Z,7.23
2018-07-06T13:05:37.062Z,7.60
2018-07-06T13:08:05.629Z,7.57
2018-07-06T13:10:34.212Z,7.80
2018-07-06T13:13:02.659Z,7.60
2018-07-06T13:15:31.416Z,7.67
2018-07-06T13:18:00.062Z,6.93
2018-07-06T13:20:28.607Z,6.47
2018-07-06T13:22:57.151Z,6.63
2018-07-06T13:25:25.733Z,6.57
2018-07-06T13:27:54.304Z,5.97
2018-07-06T13:30:22.841Z,6.57
2018-07-06T13:32:52.175Z,8.23
2018-07-06T13:35:20.789Z,7.80
2018-07-06T13:37:49.457Z,9.33
2018-07-06T13:40:18.054Z,10.13
2018-07-06T13:42:46.780Z,9.00
2018-07-06T13:45:15.692Z,7.37
2018-07-06T13:47:44.574Z,8.10
2018-07-06T13:50:13.261Z,9.50
2018-07-06T13:52:41.846Z,11.40
2018-07-06T13:55:10.495Z,13.10
2018-07-06T13:57:39.216Z,13.67
2018-07-06T14:00:08.502Z,12.27
2018-07-06T14:02:37.073Z,13.10
2018-07-06T14:05:05.821Z,14.07
2018-07-06T14:07:34.613Z,12.80
2018-07-06T14:10:03.360Z,12.00
2018-07-06T14:12:31.946Z,13.57
2018-07-06T14:15:00.638Z,12.60
2018-07-06T14:17:29.221Z,11.57
2018-07-06T14:19:57.864Z,10.73
2018-07-06T14:22:26.142Z,10.77
2018-07-06T14:24:54.914Z,11.07
2018-07-06T14:27:23.469Z,12.63
2018-07-06T14:29:52.019Z,7.60
2018-07-06T14:32:20.748Z,7.43
2018-07-06T14:34:50.146Z,6.97
2018-07-06T14:37:18.955Z,6.53
2018-07-06T14:39:47.593Z,7.40
2018-07-06T14:42:16.485Z,7.83
2018-07-06T14:44:45.128Z,9.23
2018-07-06T14:47:13.430Z,9.93
2018-07-06T14:49:42.466Z,9.30
2018-07-06T14:52:11.109Z,10.10
2018-07-06T14:54:39.728Z,9.73
2018-07-06T14:57:08.340Z,10.33
2018-07-06T14:59:37.148Z,10.90
2018-07-06T15:02:05.656Z,11.83
2018-07-06T15:04:34.531Z,10.97
2018-07-06T15:07:03.470Z,11.77
2018-07-06T15:09:32.047Z,12.90
2018-07-06T15:12:00.819Z,12.00
2018-07-06T15:14:29.489Z,12.90
2018-07-06T15:16:58.199Z,11.43
2018-07-06T15:19:27.108Z,12.40
2018-07-06T15:21:56.105Z,12.63
2018-07-06T15:24:24.793Z,14.60
2018-07-06T15:26:53.429Z,14.43
2018-07-06T15:29:22.329Z,13.63
2018-07-06T15:31:51.025Z,14.80
2018-07-06T15:34:19.740Z,15.50
2018-07-06T15:36:49.022Z,15.17
2018-07-06T15:39:18.293Z,15.87
2018-07-06T15:41:47.240Z,15.70
2018-07-06T15:44:15.484Z,17.20
2018-07-06T15:46:44.191Z,16.57
2018-07-06T15:49:13.050Z,17.20
2018-07-06T15:51:42.029Z,18.87
2018-07-06T15:54:11.025Z,18.20
2018-07-06T15:56:40.112Z,17.67
2018-07-06T15:59:11.876Z,17.97
2018-07-06T16:01:40.667Z,19.50
2018-07-06T16:04:09.795Z,21.87
2018-07-06T16:06:38.477Z,22.00
2018-07-06T16:09:07.314Z,22.97
2018-07-06T16:11:36.236Z,24.97
2018-07-06T16:14:05.480Z,23.90
2018-07-06T16:16:34.046Z,25.60
2018-07-06T16:19:02.803Z,24.77
2018-07-06T16:21:31.692Z,25.07
2018-07-06T16:24:01.274Z,24.43
2018-07-06T16:26:30.174Z,24.17
2018-07-06T16:28:59.236Z,26.60
2018-07-06T16:31:28.135Z,26.13
2018-07-06T16:33:57.175Z,24.90
2018-07-06T16:36:26.131Z,23.90
2018-07-06T16:38:55.205Z,23.87
2018-07-06T16:41:24.349Z,24.17
2018-07-06T16:43:53.482Z,25.07
2018-07-06T16:46:22.223Z,25.20
2018-07-06T16:48:51.010Z,23.47
2018-07-06T16:51:20.064Z,26.30
2018-07-06T16:53:49.258Z,25.00
2018-07-06T16:56:18.106Z,25.80
2018-07-06T16:58:46.948Z,24.97
2018-07-06T17:01:15.849Z,26.40
2018-07-06T17:03:44.942Z,26.60
2018-07-06T17:06:13.965Z,26.60
2018-07-06T17:08:42.750Z,27.63
2018-07-06T17:11:11.478Z,26.90
2018-07-06T17:13:40.198Z,27.07
2018-07-06T17:16:09.175Z,29.40
2018-07-06T17:18:38.144Z,29.53
2018-07-06T17:21:07.451Z,29.83
2018-07-06T17:23:36.571Z,29.70
2018-07-06T17:26:05.522Z,29.33
2018-07-06T17:28:34.652Z,27.23
2018-07-06T17:31:03.494Z,26.93
2018-07-06T17:33:32.734Z,25.30
2018-07-06T17:36:03.003Z,27.73
2018-07-06T17:38:32.850Z,26.67
2018-07-06T17:41:02.341Z,26.57
2018-07-06T17:43:31.753Z,28.30
2018-07-06T17:46:00.729Z,27.33
2018-07-06T17:48:30.021Z,28.90
2018-07-06T17:50:59.083Z,28.60
2018-07-06T17:53:27.831Z,29.90
2018-07-06T17:55:58.006Z,30.97
2018-07-06T17:58:27.049Z,30.73
2018-07-06T18:00:56.160Z,72.03
2018-07-06T18:03:25.272Z,30.67
2018-07-06T18:05:54.686Z,30.70
2018-07-06T18:08:23.719Z,30.63
2018-07-06T18:10:52.564Z,30.73
2018-07-06T18:13:21.534Z,31.37
2018-07-06T18:15:50.505Z,31.13
2018-07-06T18:18:19.328Z,31.10
2018-07-06T18:20:48.993Z,30.23
2018-07-06T18:23:18.206Z,31.50
2018-07-06T18:25:47.153Z,31.70
2018-07-06T18:28:15.985Z,30.93
2018-07-06T18:30:44.695Z,29.70
2018-07-06T18:33:13.378Z,26.70
2018-07-06T18:35:41.917Z,24.33
2018-07-06T18:38:11.036Z,25.47
2018-07-06T18:40:39.964Z,21.50
2018-07-06T18:43:08.340Z,20.87
2018-07-06T18:45:37.261Z,20.20
2018-07-06T18:48:06.774Z,20.83
2018-07-06T18:50:36.788Z,20.67
2018-07-06T18:53:06.200Z,21.13
2018-07-06T18:55:35.571Z,34.10
2018-07-06T18:58:04.536Z,26.47
2018-07-06T19:00:33.754Z,24.10
2018-07-06T19:03:03.510Z,24.00
2018-07-06T19:05:33.117Z,30.97
2018-07-06T19:08:02.959Z,27.17
2018-07-06T19:10:32.081Z,23.67
2018-07-06T19:13:01.913Z,23.93
2018-07-06T19:15:31.023Z,29.73
2018-07-06T19:18:00.855Z,23.73
2018-07-06T19:20:31.325Z,19.90
2018-07-06T19:23:00.563Z,25.67
2018-07-06T19:25:30.170Z,20.40
2018-07-06T19:27:59.902Z,20.77
2018-07-06T19:30:29.415Z,23.07
2018-07-06T19:32:58.660Z,20.60
2018-07-06T19:35:27.928Z,20.53
2018-07-06T19:37:57.851Z,19.83
2018-07-06T19:40:27.321Z,19.40
2018-07-06T19:42:56.750Z,21.37
2018-07-06T19:45:26.703Z,26.30
2018-07-06T19:47:55.891Z,23.87
2018-07-06T19:50:24.949Z,22.60
2018-07-06T19:52:53.612Z,25.50
2018-07-06T19:55:22.803Z,24.87
2018-07-06T19:57:52.144Z,23.37
2018-07-06T20:00:21.042Z,23.50
2018-07-06T20:02:49.712Z,23.20
2018-07-06T20:05:18.841Z,23.10
2018-07-06T20:07:48.263Z,24.50
2018-07-06T20:10:17.598Z,28.17
2018-07-06T20:12:46.680Z,43.27
2018-07-06T20:15:16.615Z,34.47
2018-07-06T20:17:46.073Z,29.23
2018-07-06T20:20:15.298Z,25.30
2018-07-06T20:22:44.497Z,25.70
2018-07-06T20:25:13.478Z,26.33
2018-07-06T20:27:42.431Z,26.63
2018-07-06T20:30:11.389Z,25.40
2018-07-06T20:32:40.798Z,26.00
2018-07-06T20:35:09.766Z,25.93
2018-07-06T20:37:38.619Z,25.80
2018-07-06T20:40:07.625Z,25.03
2018-07-06T20:42:36.791Z,24.20
2018-07-06T20:45:05.457Z,22.20
2018-07-06T20:47:34.173Z,23.30
2018-07-06T20:50:03.337Z,20.00
2018-07-06T20:52:32.279Z,18.27
2018-07-06T20:55:00.977Z,16.13
2018-07-06T20:57:29.606Z,13.97
2018-07-06T20:59:58.198Z,14.67
2018-07-06T21:02:27.025Z,14.50
2018-07-06T21:04:56.047Z,10.43
2018-07-06T21:07:24.837Z,9.87
2018-07-06T21:09:53.501Z,8.83
2018-07-06T21:12:22.104Z,6.73
2018-07-06T21:14:50.670Z,6.10
2018-07-06T21:17:19.199Z,6.07
2018-07-06T21:19:48.144Z,5.87
2018-07-06T21:22:17.047Z,6.60
2018-07-06T21:24:45.904Z,5.60
2018-07-06T21:27:14.899Z,5.93
2018-07-06T21:29:43.826Z,6.43
2018-07-06T21:32:12.487Z,5.77
2018-07-06T21:34:41.163Z,5.00
2018-07-06T21:37:10.024Z,5.13
2018-07-06T21:39:38.757Z,5.07
2018-07-06T21:42:07.489Z,5.20
2018-07-06T21:44:36.201Z,4.60
2018-07-06T21:47:04.851Z,5.27
2018-07-06T21:49:33.520Z,4.60
2018-07-06T21:52:02.138Z,4.23
2018-07-06T21:54:30.834Z,4.40
2018-07-06T21:56:59.529Z,4.50
2018-07-06T21:59:28.152Z,4.23
2018-07-06T22:01:56.751Z,4.30
2018-07-06T22:04:25.458Z,4.83
2018-07-06T22:06:54.049Z,4.83
2018-07-06T22:09:23.258Z,4.90
2018-07-06T22:11:51.974Z,4.67
2018-07-06T22:14:20.584Z,4.60
2018-07-06T22:16:49.153Z,4.93
2018-07-06T22:19:17.750Z,4.93
2018-07-06T22:21:46.302Z,5.20
2018-07-06T22:24:14.885Z,5.13
2018-07-06T22:26:43.461Z,5.13
2018-07-06T22:29:12.085Z,5.20
2018-07-06T22:31:40.654Z,5.03
2018-07-06T22:34:09.206Z,5.03
2018-07-06T22:36:37.981Z,5.40
2018-07-06T22:39:07.457Z,4.70
2018-07-06T22:41:36.062Z,4.80
2018-07-06T22:44:04.702Z,4.73
2018-07-06T22:46:33.310Z,5.83
2018-07-06T22:49:01.946Z,6.00
2018-07-06T22:51:30.430Z,5.77
2018-07-06T22:53:59.000Z,5.20
2018-07-06T22:56:27.583Z,5.90
2018-07-06T22:58:56.113Z,5.97
2018-07-06T23:01:24.687Z,6.27
2018-07-06T23:03:53.243Z,6.70
2018-07-06T23:06:21.851Z,7.10
2018-07-06T23:08:50.356Z,7.47
2018-07-06T23:11:18.998Z,6.97
2018-07-06T23:13:47.604Z,7.17
2018-07-06T23:16:16.232Z,8.50
2018-07-06T23:18:44.807Z,11.03
2018-07-06T23:21:13.444Z,20.73
2018-07-06T23:23:42.008Z,12.17
2018-07-06T23:26:10.568Z,10.77
2018-07-06T23:28:39.033Z,15.13
2018-07-06T23:31:07.663Z,92.10
2018-07-06T23:33:36.187Z,17.33
2018-07-06T23:36:04.995Z,15.57
2018-07-06T23:38:33.440Z,17.10
2018-07-06T23:41:02.114Z,34.17
2018-07-06T23:43:30.657Z,59.77
2018-07-06T23:45:59.337Z,101.87
2018-07-06T23:48:27.799Z,26.17
2018-07-06T23:50:56.303Z,29.27
2018-07-06T23:53:24.825Z,22.03
2018-07-06T23:55:53.342Z,16.97
2018-07-06T23:58:21.879Z,22.23
